Time;durP1;ratioP1;P1;durP2;ratioP2;P2;SDS_P1;SDS_P2;PMS_P1;PMS_P2;Temp;Humidity;BMP_temperature;BMP_pressure;BME280_temperature;BME280_humidity;BME280_pressure;Samples;Min_cycle;Max_cycle;Signal;HPM_P1;HPM_P2
2021/03/04 00:00:01;;;;;;;37.13;16.38;;;9.70;65.60;;;8.71;60.23;99096.38;5043640;28;20502;-83
2021/03/04 00:02:28;;;;;;;39.40;17.40;;;9.70;65.40;;;8.88;60.07;99092.34;5043931;28;20438;-82
2021/03/04 00:04:54;;;;;;;39.00;17.17;;;9.80;65.40;;;9.05;59.78;99094.63;5043857;28;20397;-82
2021/03/04 00:07:21;;;;;;;39.80;17.70;;;9.90;65.10;;;8.96;59.94;99082.63;5043504;28;20711;-83
2021/03/04 00:09:47;;;;;;;43.40;17.77;;;10.00;65.80;;;8.93;60.22;99078.56;5043243;28;20438;-82
2021/03/04 00:12:13;;;;;;;34.65;17.17;;;9.90;65.30;;;8.84;60.04;99091.13;5042578;28;20485;-82
2021/03/04 00:14:40;;;;;;;39.90;18.90;;;9.90;65.40;;;8.80;60.36;99086.44;5042453;28;20418;-83
2021/03/04 00:17:06;;;;;;;35.40;17.67;;;9.80;65.40;;;8.82;60.54;99087.06;5041742;28;20784;-82
2021/03/04 00:19:33;;;;;;;35.27;17.17;;;9.80;65.60;;;8.93;60.06;99082.03;5041822;28;20674;-83
2021/03/04 00:21:59;;;;;;;32.58;16.65;;;9.90;65.50;;;8.73;60.86;99075.84;5024114;28;20536;-82
2021/03/04 00:24:25;;;;;;;36.88;17.10;;;9.80;66.00;;;8.65;61.11;99080.47;5041092;28;20697;-83
2021/03/04 00:26:52;;;;;;;35.15;16.55;;;9.70;66.10;;;8.51;61.36;99082.25;5041264;28;20418;-82
2021/03/04 00:29:18;;;;;;;41.28;17.42;;;9.60;66.50;;;8.56;60.90;99077.22;5042479;28;20402;-82
2021/03/04 00:31:45;;;;;;;37.00;16.67;;;9.50;66.40;;;8.64;60.74;99073.59;5050505;28;20443;-82
2021/03/04 00:34:11;;;;;;;34.45;15.88;;;9.60;66.20;;;8.80;59.93;99071.41;5050814;28;20411;-82
2021/03/04 00:36:38;;;;;;;36.40;16.42;;;9.70;65.60;;;8.81;59.92;99078.31;5041871;28;20407;-83
2021/03/04 00:39:07;;;;;;;39.70;17.25;;;9.70;65.30;;;8.85;59.78;99074.28;5041377;28;20461;-83
2021/03/04 00:41:34;;;;;;;32.88;16.08;;;9.80;65.20;;;8.96;58.80;99077.34;5055748;28;20422;-83
2021/03/04 00:44:01;;;;;;;29.20;15.05;;;9.90;64.40;;;8.91;58.61;99073.47;5053998;28;20411;-84
2021/03/04 00:46:27;;;;;;;37.97;15.85;;;9.90;63.80;;;8.73;58.90;99067.94;5027156;28;20419;-83
2021/03/04 00:48:53;;;;;;;36.25;15.32;;;9.80;63.80;;;8.62;59.42;99070.34;5045038;28;20427;-83
2021/03/04 00:51:19;;;;;;;35.67;15.45;;;9.60;64.30;;;8.65;59.51;99064.63;5040442;28;20430;-82
2021/03/04 00:53:47;;;;;;;31.93;15.17;;;9.60;64.70;;;8.69;58.99;99068.53;5040686;28;20457;-83
2021/03/04 00:56:13;;;;;;;34.38;14.82;;;9.70;64.10;;;8.63;58.98;99070.13;5040935;28;20407;-81
2021/03/04 00:58:39;;;;;;;31.08;15.88;;;9.60;63.80;;;8.70;58.57;99065.69;5049653;28;20423;-82
2021/03/04 01:01:06;;;;;;;28.50;14.48;;;9.60;63.90;;;8.73;58.98;99065.28;5045987;28;20499;-82
2021/03/04 01:03:32;;;;;;;30.80;14.43;;;9.70;64.10;;;8.82;58.51;99056.19;5027716;28;20443;-82
2021/03/04 01:05:58;;;;;;;30.30;15.05;;;9.70;63.70;;;8.67;59.25;99055.53;5046414;28;20411;-83
2021/03/04 01:08:25;;;;;;;29.85;14.82;;;9.70;64.10;;;8.65;59.03;99051.44;5044974;28;20503;-83
2021/03/04 01:10:52;;;;;;;35.33;15.82;;;9.60;63.90;;;8.62;59.13;99050.03;5044625;28;20493;-83
2021/03/04 01:13:19;;;;;;;34.50;15.35;;;9.60;64.20;;;8.65;59.43;99051.44;5044136;28;20415;-83
2021/03/04 01:15:45;;;;;;;32.17;14.32;;;9.60;64.50;;;8.60;59.38;99041.50;5045135;28;20427;-83
2021/03/04 01:18:11;;;;;;;30.05;14.95;;;9.60;64.50;;;8.64;58.96;99047.19;5045107;28;20687;-83
2021/03/04 01:20:38;;;;;;;30.67;14.88;;;9.60;64.20;;;8.73;59.04;99038.88;5026197;28;20484;-82
2021/03/04 01:23:04;;;;;;;27.50;13.88;;;9.70;64.30;;;8.51;59.71;99051.41;5048037;28;20410;-82
2021/03/04 01:25:30;;;;;;;30.05;14.70;;;9.50;64.60;;;8.27;60.56;99051.84;5044516;28;20411;-82
2021/03/04 01:27:58;;;;;;;31.08;14.90;;;9.40;65.40;;;8.34;60.24;99046.66;5041095;28;20473;-83
2021/03/04 01:30:28;;;;;;;28.13;14.13;;;9.30;65.40;;;8.40;59.98;99040.59;5048928;28;20446;-82
2021/03/04 01:32:54;;;;;;;26.87;15.10;;;9.40;65.10;;;8.56;58.65;99034.19;5052872;28;20418;-83
2021/03/04 01:35:21;;;;;;;23.88;12.95;;;9.50;64.20;;;8.50;58.79;99019.91;5054201;28;20403;-81
2021/03/04 01:37:48;;;;;;;28.67;13.13;;;9.50;63.90;;;8.62;58.49;99025.47;5036466;28;20516;-82
2021/03/04 01:40:21;;;;;;;28.63;13.77;;;9.50;63.70;;;8.68;57.99;99017.56;5052622;28;20539;-81
2021/03/04 01:42:48;;;;;;;31.88;13.82;;;9.60;63.40;;;8.67;58.22;99023.03;5052890;28;20787;-80
2021/03/04 01:45:17;;;;;;;31.02;13.52;;;9.60;63.20;;;8.70;57.93;99018.19;5034766;28;20429;-81
2021/03/04 01:47:48;;;;;;;25.80;13.38;;;9.70;63.20;;;8.58;58.28;99013.66;5050867;28;20804;-81
2021/03/04 01:50:16;;;;;;;30.27;13.05;;;9.60;63.10;;;8.44;58.63;99008.34;5041468;28;20427;-82
2021/03/04 01:52:43;;;;;;;30.35;13.98;;;9.40;63.40;;;8.31;58.67;99004.84;5040533;28;20796;-82
2021/03/04 01:55:13;;;;;;;28.55;13.88;;;9.40;63.40;;;8.31;58.87;99000.38;5040778;28;20832;-82
2021/03/04 01:57:40;;;;;;;40.10;14.20;;;9.30;64.00;;;8.21;59.48;99002.53;5041363;28;20447;-83
2021/03/04 02:00:09;;;;;;;33.40;13.93;;;9.30;64.20;;;8.04;60.08;99001.25;5023571;28;20501;-83
2021/03/04 02:02:36;;;;;;;30.95;14.20;;;9.10;65.10;;;8.11;59.47;99000.25;5024222;28;20519;-83
2021/03/04 02:05:08;;;;;;;32.88;13.93;;;9.10;64.70;;;8.20;58.97;99000.06;5024277;28;20427;-83
2021/03/04 02:07:44;;;;;;;29.10;13.27;;;9.20;64.10;;;8.33;58.50;98998.38;5041100;28;20515;-83
2021/03/04 02:10:18;;;;;;;28.02;13.32;;;9.30;63.60;;;8.40;57.92;98988.66;5041263;28;20427;-83
2021/03/04 02:12:52;;;;;;;26.10;13.07;;;9.40;63.10;;;8.38;58.26;98989.84;5041353;28;20461;-83
2021/03/04 02:15:25;;;;;;;27.67;13.63;;;9.40;63.00;;;8.34;58.23;98983.34;5041446;28;20430;-83
2021/03/04 02:17:54;;;;;;;28.98;14.30;;;9.40;63.20;;;8.47;58.18;98981.56;5041199;28;20411;-83
2021/03/04 02:20:33;;;;;;;31.23;13.63;;;9.40;63.10;;;8.42;57.56;98976.03;5042946;28;20465;-83
2021/03/04 02:23:13;;;;;;;28.27;13.23;;;9.50;63.10;;;8.25;59.10;98974.75;5043031;28;20506;-83
2021/03/04 02:25:51;;;;;;;28.05;12.82;;;9.30;63.80;;;8.01;59.84;98977.88;5043609;28;20399;-83
2021/03/04 02:28:20;;;;;;;31.15;13.40;;;9.10;64.50;;;8.01;59.90;98970.78;5039929;28;20461;-83
2021/03/04 02:30:48;;;;;;;26.98;12.57;;;9.00;65.10;;;8.04;59.70;98980.94;5046831;28;20427;-81
2021/03/04 02:33:20;;;;;;;25.25;12.45;;;9.10;64.90;;;8.13;59.68;98971.84;5049790;28;20446;-80
2021/03/04 02:35:47;;;;;;;28.08;13.18;;;9.10;64.80;;;8.24;59.42;98967.03;5049053;28;20431;-83
2021/03/04 02:38:16;;;;;;;31.10;12.57;;;9.20;64.50;;;8.05;60.05;98965.91;5043148;28;20438;-82
2021/03/04 02:40:46;;;;;;;27.50;13.10;;;9.10;64.80;;;7.99;60.33;98959.63;5050224;28;20407;-83
2021/03/04 02:43:17;;;;;;;38.00;17.75;;;9.00;65.40;;;7.99;60.11;98956.16;5047854;28;20580;-83
2021/03/04 02:45:45;;;;;;;25.83;13.32;;;9.00;65.50;;;8.06;59.99;98959.66;5034050;28;20403;-83
2021/03/04 02:48:13;;;;;;;31.20;13.82;;;9.00;65.20;;;8.09;59.71;98951.34;5054577;28;20403;-82
2021/03/04 02:50:40;;;;;;;25.38;12.25;;;9.10;64.90;;;7.85;59.71;98950.00;5046554;28;20431;-81
2021/03/04 02:53:08;;;;;;;26.15;12.65;;;9.00;64.40;;;7.79;60.08;98948.16;5038845;28;20415;-82
2021/03/04 02:55:36;;;;;;;24.63;12.25;;;8.90;64.80;;;7.82;59.41;98952.25;5037555;28;20438;-82
2021/03/04 02:58:07;;;;;;;19.57;9.60;;;8.80;64.60;;;7.89;58.15;98953.09;5049396;28;20476;-80
2021/03/04 03:00:35;;;;;;;21.73;10.43;;;8.90;63.10;;;7.83;57.67;98944.13;5045117;28;20469;-79
2021/03/04 03:03:07;;;;;;;20.77;9.98;;;8.90;62.50;;;7.93;56.70;98938.50;5048927;28;20415;-80
2021/03/04 03:05:35;;;;;;;22.88;10.93;;;8.90;62.10;;;7.98;56.55;98933.44;5048812;28;20472;-82
2021/03/04 03:08:03;;;;;;;21.67;9.98;;;9.00;61.30;;;8.16;55.55;98934.53;5041761;28;20407;-82
2021/03/04 03:10:30;;;;;;;22.80;10.40;;;9.10;60.40;;;7.98;56.11;98933.44;5041054;28;20434;-82
2021/03/04 03:12:58;;;;;;;18.55;9.95;;;9.00;60.80;;;8.10;56.05;98927.44;5041989;28;20541;-82
2021/03/04 03:15:25;;;;;;;21.52;10.07;;;9.10;61.00;;;8.15;55.76;98932.09;5043371;28;20403;-83
2021/03/04 03:17:52;;;;;;;18.95;9.73;;;9.10;60.50;;;8.13;55.85;98923.56;5044818;28;20517;-83
2021/03/04 03:20:22;;;;;;;25.58;10.85;;;9.20;60.40;;;8.28;55.23;98926.84;5043650;28;20415;-83
2021/03/04 03:22:50;;;;;;;21.58;9.65;;;9.20;60.00;;;8.25;55.65;98926.47;5054096;28;20441;-82
2021/03/04 03:25:17;;;;;;;18.42;9.38;;;9.30;60.10;;;8.41;55.08;98931.41;5054191;28;20487;-82
2021/03/04 03:27:45;;;;;;;18.98;9.55;;;9.30;60.00;;;8.44;55.15;98929.16;5054825;28;20433;-82
2021/03/04 03:30:17;;;;;;;19.70;9.73;;;9.40;59.80;;;8.22;55.67;98926.84;5052375;28;20430;-81
2021/03/04 03:32:51;;;;;;;21.52;9.25;;;9.30;60.00;;;8.06;56.00;98926.19;5043381;28;20423;-81
2021/03/04 03:35:19;;;;;;;18.63;10.18;;;9.20;60.30;;;8.09;55.80;98914.44;5042574;28;20432;-83
2021/03/04 03:37:46;;;;;;;26.75;10.20;;;9.10;60.40;;;7.86;56.58;98927.09;5043649;28;20880;-82
2021/03/04 03:40:16;;;;;;;17.05;9.45;;;8.90;60.80;;;7.92;56.08;98926.31;5043459;28;20426;-83
2021/03/04 03:42:43;;;;;;;20.98;9.73;;;8.90;60.80;;;8.17;55.80;98927.44;5043686;28;20484;-83
2021/03/04 03:45:16;;;;;;;18.92;9.57;;;9.10;60.70;;;8.10;54.98;98923.97;5043853;28;20411;-83
2021/03/04 03:47:44;;;;;;;19.77;9.88;;;9.10;59.70;;;8.12;55.11;98925.38;5044220;28;20460;-83
2021/03/04 03:50:15;;;;;;;19.37;9.40;;;9.10;59.90;;;7.90;55.93;98923.88;5044498;28;20831;-83
2021/03/04 03:52:44;;;;;;;18.80;8.98;;;9.10;60.30;;;7.84;56.36;98921.22;5044944;28;20426;-83
2021/03/04 03:55:13;;;;;;;25.40;9.60;;;8.90;60.80;;;7.76;56.95;98927.47;5044309;28;20403;-83
2021/03/04 03:57:41;;;;;;;27.10;9.60;;;8.90;61.40;;;7.83;56.64;98925.66;5044533;28;20423;-83
2021/03/04 04:00:09;;;;;;;19.25;10.15;;;8.80;61.50;;;7.95;56.38;98918.84;5043289;28;20411;-83
2021/03/04 04:02:38;;;;;;;18.48;10.20;;;8.90;61.30;;;8.02;56.11;98910.97;5043806;28;20514;-83
2021/03/04 04:05:07;;;;;;;20.23;10.50;;;9.00;60.80;;;8.02;56.21;98909.13;5043439;28;20501;-83
2021/03/04 04:07:34;;;;;;;28.92;10.25;;;9.00;60.80;;;8.03;56.29;98902.84;5043677;28;20569;-83
2021/03/04 04:10:03;;;;;;;21.77;10.27;;;9.00;60.80;;;8.05;56.06;98900.81;5042050;28;20864;-83
2021/03/04 04:12:29;;;;;;;25.90;10.35;;;9.10;60.70;;;8.30;55.51;98900.28;5042576;28;20481;-83
2021/03/04 04:14:56;;;;;;;30.77;10.82;;;9.10;60.60;;;8.41;55.42;98899.75;5040732;28;20496;-83
2021/03/04 04:17:22;;;;;;;19.52;9.77;;;9.30;60.20;;;8.07;55.99;98892.72;5041811;28;20423;-83
2021/03/04 04:19:49;;;;;;;23.55;10.23;;;9.20;60.10;;;7.87;56.80;98891.81;5024732;28;20426;-83
2021/03/04 04:22:17;;;;;;;27.45;11.20;;;9.00;61.00;;;7.75;56.85;98886.28;5051305;28;20742;-80
2021/03/04 04:24:43;;;;;;;22.92;10.20;;;8.80;61.40;;;7.76;56.81;98891.38;5046058;28;20510;-82
2021/03/04 04:27:12;;;;;;;22.83;10.63;;;8.80;61.40;;;7.75;56.82;98887.09;5042035;28;20410;-82
2021/03/04 04:29:38;;;;;;;24.15;11.10;;;8.80;61.40;;;7.90;56.45;98891.41;5055143;28;20419;-82
2021/03/04 04:32:06;;;;;;;19.63;10.27;;;8.90;61.20;;;8.01;56.46;98888.22;5054192;28;20415;-83
2021/03/04 04:34:32;;;;;;;28.07;10.70;;;9.00;61.20;;;7.97;56.65;98893.06;5043937;28;20535;-82
2021/03/04 04:36:58;;;;;;;23.40;9.98;;;9.00;61.20;;;7.90;56.84;98886.97;5044372;28;20411;-83
2021/03/04 04:39:25;;;;;;;20.95;9.82;;;8.90;61.40;;;7.84;57.08;98882.47;5042781;28;20407;-83
2021/03/04 04:41:51;;;;;;;21.88;10.07;;;8.90;61.70;;;7.79;57.27;98879.63;5042923;28;20429;-83
2021/03/04 04:44:18;;;;;;;26.13;10.88;;;8.80;61.70;;;7.83;57.22;98877.41;5043872;28;20477;-83
2021/03/04 04:46:45;;;;;;;25.55;10.00;;;8.80;62.10;;;7.56;58.01;98873.84;5044408;28;20824;-83
2021/03/04 04:49:11;;;;;;;27.90;11.00;;;8.70;62.10;;;7.62;57.97;98871.22;5044064;28;20453;-82
2021/03/04 04:51:37;;;;;;;20.87;10.87;;;8.60;62.70;;;7.49;58.39;98873.00;5044354;28;20521;-83
2021/03/04 04:54:04;;;;;;;28.50;10.50;;;8.60;63.10;;;7.64;58.16;98871.03;5026585;28;20431;-82
2021/03/04 04:56:30;;;;;;;23.73;10.23;;;8.60;63.00;;;7.61;58.01;98864.34;5050799;28;20774;-79
2021/03/04 04:58:56;;;;;;;26.48;11.40;;;8.70;62.90;;;7.65;57.86;98867.41;5050894;28;20419;-80
2021/03/04 05:01:24;;;;;;;27.25;10.25;;;8.70;63.60;;;7.63;58.08;98850.97;5024984;28;20446;-82
2021/03/04 05:03:50;;;;;;;26.55;10.30;;;8.70;62.90;;;7.64;58.01;98856.06;5040632;28;20423;-81
2021/03/04 05:06:16;;;;;;;24.63;10.90;;;8.70;62.90;;;7.56;58.22;98853.56;5041706;28;20415;-82
2021/03/04 05:08:42;;;;;;;23.17;10.20;;;8.60;63.00;;;7.53;58.42;98847.88;5041986;28;20422;-83
2021/03/04 05:11:09;;;;;;;22.23;10.05;;;8.60;63.00;;;7.56;58.25;98847.50;5025469;28;20415;-83
2021/03/04 05:13:35;;;;;;;21.75;10.30;;;8.60;63.20;;;7.59;58.45;98855.00;5044126;28;20448;-83
2021/03/04 05:16:01;;;;;;;27.05;10.45;;;8.60;63.20;;;7.51;58.62;98842.81;5028854;28;20579;-83
2021/03/04 05:18:29;;;;;;;22.17;10.32;;;8.60;63.40;;;7.49;58.73;98844.81;5048319;28;20526;-84
2021/03/04 05:20:55;;;;;;;23.08;10.75;;;8.60;63.60;;;7.47;58.66;98841.56;5050994;28;20403;-84
2021/03/04 05:23:21;;;;;;;23.03;9.97;;;8.50;63.50;;;7.45;59.08;98840.94;5050473;28;20458;-84
2021/03/04 05:25:47;;;;;;;18.95;10.07;;;8.50;63.80;;;7.33;59.24;98830.16;5052205;28;20403;-83
2021/03/04 05:28:14;;;;;;;23.65;10.93;;;8.40;64.00;;;7.24;59.67;98835.75;5053664;28;20705;-83
2021/03/04 05:30:40;;;;;;;19.65;10.10;;;8.30;64.40;;;7.26;59.43;98834.56;5051590;28;20455;-82
2021/03/04 05:33:07;;;;;;;25.02;10.57;;;8.30;64.40;;;7.32;59.40;98825.06;5050939;28;20542;-83
2021/03/04 05:35:34;;;;;;;24.35;10.45;;;8.40;64.40;;;7.38;58.97;98824.28;5050602;28;20423;-81
2021/03/04 05:38:00;;;;;;;22.58;11.20;;;8.40;64.10;;;7.52;58.77;98827.81;5053524;28;20410;-82
2021/03/04 05:40:27;;;;;;;22.48;10.00;;;8.50;63.90;;;7.54;58.85;98826.59;5034840;28;20477;-82
2021/03/04 05:42:55;;;;;;;25.40;11.40;;;8.60;63.80;;;7.60;58.63;98819.72;5048977;28;20411;-82
2021/03/04 05:45:23;;;;;;;28.55;11.35;;;8.60;63.60;;;7.66;58.32;98819.78;5044868;28;20828;-83
2021/03/04 05:47:50;;;;;;;25.33;10.05;;;8.70;63.30;;;7.65;58.32;98817.34;5044659;28;20497;-82
2021/03/04 05:50:19;;;;;;;29.15;10.43;;;8.70;63.10;;;7.61;58.09;98824.00;5028120;28;20445;-82
2021/03/04 05:53:02;;;;;;;24.20;10.93;;;8.60;62.70;;;7.56;58.34;98821.13;5045806;28;20459;-82
2021/03/04 05:55:29;;;;;;;18.40;10.43;;;8.60;63.10;;;7.51;58.42;98815.66;5044346;28;20437;-82
2021/03/04 05:57:57;;;;;;;21.48;11.32;;;8.60;63.30;;;7.46;58.39;98812.78;5045726;28;20411;-81
2021/03/04 06:00:24;;;;;;;27.73;11.10;;;8.50;63.20;;;7.46;58.51;98810.97;5045226;28;20446;-81
2021/03/04 06:02:51;;;;;;;39.28;11.10;;;8.50;63.40;;;7.62;57.89;98812.44;5046569;28;20423;-81
2021/03/04 06:05:18;;;;;;;22.08;10.15;;;8.60;63.10;;;7.59;57.85;98815.50;5044669;28;20434;-84
2021/03/04 06:07:45;;;;;;;28.88;11.02;;;8.60;62.80;;;7.52;58.42;98812.81;5045999;28;20881;-83
2021/03/04 06:10:15;;;;;;;32.27;11.57;;;8.60;63.10;;;7.44;58.66;98810.38;5045813;28;20431;-84
2021/03/04 06:12:44;;;;;;;30.58;11.88;;;8.50;63.50;;;7.32;58.89;98801.38;5046335;28;20415;-84
2021/03/04 06:15:12;;;;;;;34.78;13.40;;;8.40;63.70;;;7.25;59.11;98808.44;5046417;28;20405;-85
2021/03/04 06:17:39;;;;;;;41.85;12.60;;;8.30;63.90;;;7.28;59.07;98806.22;5045697;28;20419;-84
2021/03/04 06:20:08;;;;;;;34.25;11.70;;;8.30;64.00;;;7.36;58.58;98803.44;5044967;28;20786;-83
2021/03/04 06:22:36;;;;;;;23.58;11.05;;;8.30;63.70;;;7.42;58.34;98808.91;5048692;28;20415;-82
2021/03/04 06:25:09;;;;;;;20.02;10.98;;;8.40;63.30;;;7.43;58.17;98805.28;5041591;28;20415;-83
2021/03/04 06:27:39;;;;;;;25.52;11.10;;;8.40;63.20;;;7.53;58.16;98801.25;5042798;28;20426;-83
2021/03/04 06:30:11;;;;;;;30.83;11.65;;;8.50;63.20;;;7.60;57.47;98798.66;5042185;28;20419;-83
2021/03/04 06:32:58;;;;;;;27.48;11.18;;;8.60;62.50;;;7.44;57.71;98810.38;5048245;28;20414;-80
2021/03/04 06:35:30;;;;;;;26.80;10.73;;;8.60;62.10;;;7.45;57.41;98805.88;5049330;28;20758;-81
2021/03/04 06:37:56;;;;;;;28.63;11.07;;;8.50;62.30;;;7.50;57.25;98811.38;5049002;28;20730;-82
2021/03/04 06:40:24;;;;;;;39.88;11.77;;;8.50;62.00;;;7.68;57.17;98803.75;5049312;28;20409;-81
2021/03/04 06:42:53;;;;;;;33.28;12.38;;;8.70;62.10;;;7.69;57.06;98808.81;5049830;28;20423;-81
2021/03/04 06:45:31;;;;;;;43.23;12.20;;;8.70;61.80;;;7.88;56.40;98803.81;5044473;28;20413;-83
2021/03/04 06:48:09;;;;;;;38.78;12.80;;;8.80;61.40;;;7.92;56.45;98807.69;5042484;28;20414;-83
2021/03/04 06:50:36;;;;;;;25.65;11.75;;;8.90;61.10;;;7.96;56.27;98804.47;5040797;28;20426;-82
2021/03/04 06:53:15;;;;;;;51.95;26.05;;;8.90;61.00;;;7.99;56.25;98804.03;5040488;28;20427;-81
2021/03/04 06:55:53;;;;;;;34.55;12.80;;;9.00;60.80;;;8.31;55.13;98799.88;5041268;28;20403;-81
2021/03/04 06:58:30;;;;;;;32.70;11.60;;;9.20;60.10;;;8.29;55.09;98799.22;5024609;28;20442;-82
2021/03/04 07:01:06;;;;;;;53.67;14.43;;;9.30;59.70;;;8.54;53.95;98805.56;5023534;28;20452;-81
2021/03/04 07:03:41;;;;;;;34.03;13.20;;;9.40;59.20;;;8.57;53.77;98799.06;5026925;28;20430;-82
2021/03/04 07:06:10;;;;;;;33.50;13.30;;;9.50;58.60;;;8.54;52.62;98795.00;5045841;28;20452;-83
2021/03/04 07:08:39;;;;;;;40.50;10.93;;;9.50;58.00;;;8.53;53.44;98803.94;5045798;28;20553;-83
2021/03/04 07:11:07;;;;;;;28.35;11.30;;;9.50;58.10;;;8.51;52.65;98811.25;5049128;28;20434;-82
2021/03/04 07:13:41;;;;;;;36.05;11.52;;;9.50;57.60;;;8.64;52.85;98807.81;5045824;28;20411;-82
2021/03/04 07:16:09;;;;;;;38.47;13.57;;;9.60;57.70;;;8.65;51.69;98798.03;5043627;28;20406;-83
2021/03/04 07:18:42;;;;;;;38.90;10.93;;;9.60;57.00;;;8.69;51.11;98802.72;5027461;28;20437;-81
2021/03/04 07:21:11;;;;;;;34.17;12.07;;;9.60;56.10;;;8.72;51.04;98797.03;5043195;28;20407;-83
2021/03/04 07:23:39;;;;;;;45.28;13.73;;;9.70;56.00;;;8.96;51.29;98798.22;5040923;28;20414;-85
2021/03/04 07:26:10;;;;;;;35.17;12.45;;;9.80;56.30;;;8.97;50.41;98794.56;5043986;28;20407;-82
2021/03/04 07:28:39;;;;;;;28.33;11.27;;;9.90;55.70;;;8.88;49.54;98793.16;5045580;28;20488;-81
2021/03/04 07:31:07;;;;;;;42.97;11.07;;;9.80;54.60;;;8.87;50.03;98794.19;5044656;28;20423;-80
2021/03/04 07:33:36;;;;;;;31.88;11.50;;;9.80;55.00;;;8.88;49.50;98787.88;5043136;28;20804;-82
2021/03/04 07:36:10;;;;;;;35.38;11.57;;;9.90;54.70;;;9.06;48.37;98787.22;5041694;28;20411;-81
2021/03/04 07:38:38;;;;;;;22.33;9.55;;;9.90;53.90;;;9.45;44.22;98791.59;5040908;28;20514;-81
2021/03/04 07:41:08;;;;;;;29.58;10.23;;;10.20;49.70;;;9.56;43.71;98790.91;5043551;28;20403;-81
2021/03/04 07:43:50;;;;;;;19.53;9.57;;;10.40;49.20;;;9.63;43.75;98789.88;5047095;28;20505;-80
2021/03/04 07:46:28;;;;;;;23.40;10.23;;;10.50;49.10;;;9.78;43.09;98783.50;5045258;28;20414;-81
2021/03/04 07:48:55;;;;;;;21.27;10.77;;;10.60;48.40;;;9.87;43.33;98776.94;5047834;28;20419;-83
2021/03/04 07:51:22;;;;;;;29.70;10.80;;;10.80;48.80;;;9.88;43.70;98779.38;5048533;28;20541;-83
2021/03/04 07:53:48;;;;;;;21.60;10.02;;;10.80;49.00;;;9.85;43.63;98776.38;5046741;28;20739;-83
2021/03/04 07:56:42;;;;;;;30.65;10.55;;;10.80;49.00;;;9.88;43.59;98774.09;5047271;28;20828;-82
2021/03/04 07:59:28;;;;;;;35.15;11.07;;;10.80;48.90;;;9.96;43.77;98778.31;5027295;28;20499;-82
2021/03/04 08:01:58;;;;;;;26.70;9.65;;;10.80;48.90;;;9.93;43.08;98763.69;5030046;28;20482;-81
2021/03/04 08:04:27;;;;;;;33.75;12.48;;;10.80;48.30;;;10.01;43.37;98763.41;5067573;28;20434;-81
2021/03/04 08:06:56;;;;;;;28.33;11.73;;;10.90;48.70;;;10.05;43.86;98766.47;5055220;28;20435;-83
2021/03/04 08:09:31;;;;;;;24.80;10.73;;;10.90;48.90;;;10.40;42.46;98764.19;5059051;28;20400;-82
2021/03/04 08:12:29;;;;;;;30.92;11.02;;;11.10;48.10;;;10.35;43.16;98764.84;5075384;28;20422;-82
2021/03/04 08:14:58;;;;;;;31.33;11.27;;;11.20;48.20;;;10.29;43.37;98771.03;5052608;28;20449;-83
2021/03/04 08:17:35;;;;;;;27.05;10.73;;;11.20;48.30;;;10.61;42.47;98765.66;5065388;28;20924;-83
2021/03/04 08:20:08;;;;;;;28.65;11.48;;;11.30;48.00;;;10.63;42.84;98764.41;5066359;28;20436;-83
2021/03/04 08:22:46;;;;;;;30.33;10.20;;;11.50;47.80;;;10.69;41.52;98763.53;5049316;28;20404;-83
2021/03/04 08:25:24;;;;;;;23.23;10.17;;;11.50;47.10;;;10.77;41.45;98757.16;5066803;28;20438;-82
2021/03/04 08:27:54;;;;;;;20.52;10.93;;;11.60;46.60;;;10.80;41.67;98752.25;5046247;28;20468;-82
2021/03/04 08:30:37;;;;;;;21.15;8.98;;;11.60;46.80;;;10.69;41.08;98746.84;5066441;28;20473;-82
2021/03/04 08:33:06;;;;;;;23.55;9.18;;;11.60;46.20;;;10.78;41.27;98742.88;5066509;28;20752;-83
2021/03/04 08:35:37;;;;;;;23.50;9.88;;;11.60;47.10;;;10.73;40.68;98737.44;5066283;28;20424;-82
2021/03/04 08:38:07;;;;;;;22.87;8.90;;;11.60;46.00;;;10.98;40.28;98732.06;5046519;28;21050;-82
2021/03/04 08:40:45;;;;;;;27.65;9.32;;;11.70;45.40;;;11.09;39.61;98729.50;5063488;28;20468;-84
2021/03/04 08:43:15;;;;;;;22.87;9.13;;;11.90;44.70;;;11.07;39.78;98730.75;5050231;28;20486;-83
2021/03/04 08:45:45;;;;;;;23.27;9.63;;;11.90;44.90;;;11.22;39.52;98726.69;5074518;28;20401;-81
2021/03/04 08:48:13;;;;;;;21.35;8.65;;;12.00;44.90;;;11.22;39.34;98726.69;5057225;28;20492;-82
2021/03/04 08:50:41;;;;;;;27.45;9.40;;;12.10;44.40;;;11.14;39.81;98718.25;5072524;28;20532;-81
2021/03/04 08:53:14;;;;;;;21.50;9.27;;;12.00;44.60;;;11.17;39.37;98729.22;5069242;28;20451;-83
2021/03/04 08:55:52;;;;;;;19.50;8.80;;;12.00;44.60;;;11.22;39.16;98723.25;5046562;28;20428;-84
2021/03/04 08:58:20;;;;;;;22.30;9.03;;;12.00;44.60;;;11.22;39.70;98717.94;5047500;28;20573;-84
2021/03/04 09:01:05;;;;;;;24.02;9.07;;;12.10;44.90;;;11.50;38.88;98723.50;5063372;28;20458;-84
2021/03/04 09:03:35;;;;;;;20.38;8.95;;;12.30;44.20;;;11.49;39.21;98716.59;5036792;28;20549;-83
2021/03/04 09:06:10;;;;;;;19.98;9.10;;;12.40;44.30;;;11.50;38.70;98715.53;5047887;28;20415;-84
2021/03/04 09:08:38;;;;;;;43.50;10.45;;;12.40;43.60;;;11.44;39.14;98711.13;5060867;28;20438;-83
2021/03/04 09:11:08;;;;;;;24.73;10.30;;;12.30;44.20;;;11.48;38.91;98707.03;5042964;28;20421;-81
2021/03/04 09:13:36;;;;;;;35.63;9.27;;;12.30;43.90;;;11.42;38.91;98702.63;5046396;28;20460;-83
2021/03/04 09:16:07;;;;;;;24.73;8.80;;;12.30;44.10;;;11.53;39.01;98701.03;5047511;28;20461;-83
2021/03/04 09:18:47;;;;;;;20.83;8.85;;;12.30;44.00;;;11.64;38.83;98697.63;5046841;28;20485;-83
2021/03/04 09:21:17;;;;;;;20.70;8.98;;;12.40;43.90;;;11.65;38.90;98694.72;5047199;28;20417;-83
2021/03/04 09:23:45;;;;;;;31.60;9.95;;;12.40;44.10;;;11.86;38.73;98696.13;5047221;28;20412;-84
2021/03/04 09:26:12;;;;;;;26.13;9.05;;;12.50;44.00;;;11.96;38.76;98698.19;5048218;28;20456;-82
2021/03/04 09:28:43;;;;;;;20.58;9.23;;;12.70;44.00;;;12.03;38.66;98689.09;5046504;28;20410;-83
2021/03/04 09:31:12;;;;;;;36.67;9.50;;;12.80;43.70;;;11.91;39.00;98685.63;5044426;28;20479;-82
2021/03/04 09:33:54;;;;;;;25.83;9.48;;;12.80;43.90;;;11.99;39.11;98676.53;5041051;28;20445;-84
2021/03/04 09:36:21;;;;;;;21.90;9.32;;;12.80;44.10;;;12.00;38.86;98675.47;5042058;28;20448;-81
2021/03/04 09:38:52;;;;;;;19.48;8.45;;;12.80;44.00;;;11.94;39.58;98685.19;5042743;28;20705;-81
2021/03/04 09:41:20;;;;;;;23.45;8.80;;;12.80;44.30;;;11.96;39.53;98680.44;5042707;28;20441;-83
2021/03/04 09:43:52;;;;;;;25.20;9.27;;;12.70;44.50;;;12.03;39.26;98675.81;5056489;28;20457;-83
2021/03/04 09:46:30;;;;;;;25.05;9.45;;;12.80;44.40;;;12.13;39.08;98674.47;5041625;28;20717;-83
2021/03/04 09:49:07;;;;;;;19.50;8.98;;;12.80;44.40;;;12.26;39.31;98660.97;5059789;28;20415;-81
2021/03/04 09:51:35;;;;;;;31.80;9.52;;;13.00;44.50;;;12.26;39.17;98653.81;5062209;28;20492;-82
2021/03/04 09:54:02;;;;;;;22.27;9.68;;;13.00;44.40;;;12.35;39.08;98657.72;5063911;28;20403;-83
2021/03/04 09:56:30;;;;;;;22.80;9.23;;;13.10;44.30;;;12.41;39.02;98650.69;5061730;28;20441;-83
2021/03/04 09:58:57;;;;;;;29.20;9.02;;;13.20;44.00;;;12.37;39.59;98653.00;5061733;28;20416;-83
2021/03/04 10:01:33;;;;;;;22.73;8.82;;;13.20;44.50;;;12.44;39.38;98652.06;5061271;28;20417;-83
2021/03/04 10:04:03;;;;;;;24.67;8.60;;;13.30;44.50;;;12.48;39.61;98642.63;5078724;28;20469;-83
2021/03/04 10:06:34;;;;;;;22.80;9.32;;;13.30;44.60;;;12.53;40.05;98643.53;5080844;28;20431;-82
2021/03/04 10:09:02;;;;;;;34.28;11.30;;;13.30;45.10;;;12.59;40.32;98644.44;5082535;28;20452;-84
2021/03/04 10:11:32;;;;;;;22.27;9.65;;;13.40;45.50;;;12.69;39.86;98639.34;5081651;28;20556;-82
2021/03/04 10:14:10;;;;;;;24.30;9.48;;;13.40;45.20;;;12.81;39.71;98634.81;5080911;28;20439;-82
2021/03/04 10:16:39;;;;;;;24.90;10.10;;;13.60;45.00;;;13.06;39.64;98640.66;5063104;28;20426;-82
2021/03/04 10:19:08;;;;;;;31.48;10.38;;;13.70;44.90;;;13.13;39.38;98632.56;5062371;28;20809;-82
2021/03/04 10:21:35;;;;;;;29.58;9.55;;;13.80;44.50;;;13.10;39.73;98627.69;5063173;28;20430;-82
2021/03/04 10:24:01;;;;;;;23.65;10.48;;;13.90;44.90;;;13.07;39.88;98628.97;5080651;28;20429;-82
2021/03/04 10:26:28;;;;;;;29.13;11.07;;;13.80;44.90;;;13.19;39.77;98626.31;5080397;28;20418;-81